sensor_id;sensor_type;location;lat;lon;timestamp;temperature;humidity
8539;DHT22;4307;53.868;11.680;2023-04-25T00:02:24;9.40;99.90
8539;DHT22;4307;53.868;11.680;2023-04-25T00:04:51;9.30;99.90
8539;DHT22;4307;53.868;11.680;2023-04-25T00:07:19;9.30;99.90
8539;DHT22;4307;53.868;11.680;2023-04-25T00:09:45;9.30;99.90
8539;DHT22;4307;53.868;11.680;2023-04-25T00:12:12;9.30;99.90
8539;DHT22;4307;53.868;11.680;2023-04-25T00:14:39;9.30;99.90
8539;DHT22;4307;53.868;11.680;2023-04-25T00:17:05;9.30;99.90
8539;DHT22;4307;53.868;11.680;2023-04-25T00:19:32;9.30;99.90
8539;DHT22;4307;53.868;11.680;2023-04-25T00:22:00;9.30;99.90
8539;DHT22;4307;53.868;11.680;2023-04-25T00:24:28;9.30;99.90
8539;DHT22;4307;53.868;11.680;2023-04-25T00:26:55;9.30;99.90
8539;DHT22;4307;53.868;11.680;2023-04-25T00:29:21;9.30;99.90
8539;DHT22;4307;53.868;11.680;2023-04-25T00:31:48;9.30;99.90
8539;DHT22;4307;53.868;11.680;2023-04-25T00:34:15;9.30;99.90
8539;DHT22;4307;53.868;11.680;2023-04-25T00:36:41;9.30;99.90
8539;DHT22;4307;53.868;11.680;2023-04-25T00:39:08;9.30;99.90
8539;DHT22;4307;53.868;11.680;2023-04-25T00:41:36;9.30;99.90
8539;DHT22;4307;53.868;11.680;2023-04-25T00:44:04;9.30;99.90
8539;DHT22;4307;53.868;11.680;2023-04-25T00:46:32;9.30;99.90
8539;DHT22;4307;53.868;11.680;2023-04-25T00:48:59;9.30;99.90
8539;DHT22;4307;53.868;11.680;2023-04-25T00:51:25;9.30;99.90
8539;DHT22;4307;53.868;11.680;2023-04-25T00:53:53;9.30;99.90
8539;DHT22;4307;53.868;11.680;2023-04-25T00:56:20;9.30;99.90
8539;DHT22;4307;53.868;11.680;2023-04-25T00:58:50;9.30;99.90
8539;DHT22;4307;53.868;11.680;2023-04-25T01:01:19;9.30;99.90
8539;DHT22;4307;53.868;11.680;2023-04-25T01:03:46;9.30;99.90
8539;DHT22;4307;53.868;11.680;2023-04-25T01:06:15;9.20;99.90
8539;DHT22;4307;53.868;11.680;2023-04-25T01:08:42;9.20;99.90
8539;DHT22;4307;53.868;11.680;2023-04-25T01:11:09;9.20;99.90
8539;DHT22;4307;53.868;11.680;2023-04-25T01:13:36;9.20;99.90
8539;DHT22;4307;53.868;11.680;2023-04-25T01:16:04;9.20;99.90
8539;DHT22;4307;53.868;11.680;2023-04-25T01:18:31;9.20;99.90
8539;DHT22;4307;53.868;11.680;2023-04-25T01:21:06;9.20;99.90
8539;DHT22;4307;53.868;11.680;2023-04-25T01:23:33;9.20;99.90
8539;DHT22;4307;53.868;11.680;2023-04-25T01:26:00;9.10;99.90
8539;DHT22;4307;53.868;11.680;2023-04-25T01:28:28;9.20;99.90
8539;DHT22;4307;53.868;11.680;2023-04-25T01:30:55;9.20;99.90
8539;DHT22;4307;53.868;11.680;2023-04-25T01:33:22;9.20;99.90
8539;DHT22;4307;53.868;11.680;2023-04-25T01:35:49;9.20;99.90
8539;DHT22;4307;53.868;11.680;2023-04-25T01:38:17;9.10;99.90
8539;DHT22;4307;53.868;11.680;2023-04-25T01:40:45;9.10;99.90
8539;DHT22;4307;53.868;11.680;2023-04-25T01:43:12;9.10;99.90
8539;DHT22;4307;53.868;11.680;2023-04-25T01:45:39;9.10;99.90
8539;DHT22;4307;53.868;11.680;2023-04-25T01:48:06;9.10;99.90
8539;DHT22;4307;53.868;11.680;2023-04-25T01:50:33;9.10;99.90
8539;DHT22;4307;53.868;11.680;2023-04-25T01:53:00;9.10;99.90
8539;DHT22;4307;53.868;11.680;2023-04-25T01:55:29;9.10;99.90
8539;DHT22;4307;53.868;11.680;2023-04-25T01:57:55;9.10;99.90
8539;DHT22;4307;53.868;11.680;2023-04-25T02:00:22;9.10;99.90
8539;DHT22;4307;53.868;11.680;2023-04-25T02:02:49;9.10;99.90
8539;DHT22;4307;53.868;11.680;2023-04-25T02:05:18;9.10;99.90
8539;DHT22;4307;53.868;11.680;2023-04-25T02:07:45;9.20;99.90
8539;DHT22;4307;53.868;11.680;2023-04-25T02:10:12;9.20;99.90
8539;DHT22;4307;53.868;11.680;2023-04-25T02:12:40;9.20;99.90
8539;DHT22;4307;53.868;11.680;2023-04-25T02:15:07;9.20;99.90
8539;DHT22;4307;53.868;11.680;2023-04-25T02:17:34;9.20;99.90
8539;DHT22;4307;53.868;11.680;2023-04-25T02:20:01;9.20;99.90
8539;DHT22;4307;53.868;11.680;2023-04-25T02:22:28;9.20;99.90
8539;DHT22;4307;53.868;11.680;2023-04-25T02:24:56;9.20;99.90
8539;DHT22;4307;53.868;11.680;2023-04-25T02:27:23;9.20;99.90
8539;DHT22;4307;53.868;11.680;2023-04-25T02:29:51;9.20;99.90
8539;DHT22;4307;53.868;11.680;2023-04-25T02:32:17;9.10;99.90
8539;DHT22;4307;53.868;11.680;2023-04-25T02:34:44;9.10;99.90
8539;DHT22;4307;53.868;11.680;2023-04-25T02:37:12;9.10;99.90
8539;DHT22;4307;53.868;11.680;2023-04-25T02:39:38;9.10;99.90
8539;DHT22;4307;53.868;11.680;2023-04-25T02:42:05;9.10;99.90
8539;DHT22;4307;53.868;11.680;2023-04-25T02:44:32;9.10;99.90
8539;DHT22;4307;53.868;11.680;2023-04-25T02:47:00;9.10;99.90
8539;DHT22;4307;53.868;11.680;2023-04-25T02:49:26;9.10;99.90
8539;DHT22;4307;53.868;11.680;2023-04-25T02:51:53;9.10;99.90
8539;DHT22;4307;53.868;11.680;2023-04-25T02:54:20;9.10;99.90
8539;DHT22;4307;53.868;11.680;2023-04-25T02:56:46;9.00;99.90
8539;DHT22;4307;53.868;11.680;2023-04-25T02:59:13;9.00;99.90
8539;DHT22;4307;53.868;11.680;2023-04-25T03:01:39;9.00;99.90
8539;DHT22;4307;53.868;11.680;2023-04-25T03:04:07;9.00;99.90
8539;DHT22;4307;53.868;11.680;2023-04-25T03:06:34;9.00;99.90
8539;DHT22;4307;53.868;11.680;2023-04-25T03:09:01;9.00;99.90
8539;DHT22;4307;53.868;11.680;2023-04-25T03:11:27;9.00;99.90
8539;DHT22;4307;53.868;11.680;2023-04-25T03:13:54;9.00;99.90
8539;DHT22;4307;53.868;11.680;2023-04-25T03:16:21;9.00;99.90
8539;DHT22;4307;53.868;11.680;2023-04-25T03:18:47;9.00;99.90
8539;DHT22;4307;53.868;11.680;2023-04-25T03:21:17;9.00;99.90
8539;DHT22;4307;53.868;11.680;2023-04-25T03:23:44;8.90;99.90
8539;DHT22;4307;53.868;11.680;2023-04-25T03:26:10;8.90;99.90
8539;DHT22;4307;53.868;11.680;2023-04-25T03:28:37;8.90;99.90
8539;DHT22;4307;53.868;11.680;2023-04-25T03:31:05;8.90;99.90
8539;DHT22;4307;53.868;11.680;2023-04-25T03:33:31;8.80;99.90
8539;DHT22;4307;53.868;11.680;2023-04-25T03:35:58;8.80;99.90
8539;DHT22;4307;53.868;11.680;2023-04-25T03:38:26;8.80;99.90
8539;DHT22;4307;53.868;11.680;2023-04-25T03:40:54;8.80;99.90
8539;DHT22;4307;53.868;11.680;2023-04-25T03:43:21;8.80;99.90
8539;DHT22;4307;53.868;11.680;2023-04-25T03:45:48;8.70;99.90
8539;DHT22;4307;53.868;11.680;2023-04-25T03:48:15;8.80;99.90
8539;DHT22;4307;53.868;11.680;2023-04-25T03:50:41;8.70;99.90
8539;DHT22;4307;53.868;11.680;2023-04-25T03:53:08;8.70;99.90
8539;DHT22;4307;53.868;11.680;2023-04-25T03:55:36;8.70;99.90
8539;DHT22;4307;53.868;11.680;2023-04-25T03:58:02;8.70;99.90
8539;DHT22;4307;53.868;11.680;2023-04-25T04:00:30;8.70;99.90
8539;DHT22;4307;53.868;11.680;2023-04-25T04:02:57;8.60;99.90
8539;DHT22;4307;53.868;11.680;2023-04-25T04:05:23;8.60;99.90
8539;DHT22;4307;53.868;11.680;2023-04-25T04:07:50;8.60;99.90
8539;DHT22;4307;53.868;11.680;2023-04-25T04:10:17;8.60;99.90
8539;DHT22;4307;53.868;11.680;2023-04-25T04:12:45;8.50;99.90
8539;DHT22;4307;53.868;11.680;2023-04-25T04:15:11;8.50;99.90
8539;DHT22;4307;53.868;11.680;2023-04-25T04:17:38;8.40;99.90
8539;DHT22;4307;53.868;11.680;2023-04-25T04:20:06;8.40;99.90
8539;DHT22;4307;53.868;11.680;2023-04-25T04:22:34;8.30;99.90
8539;DHT22;4307;53.868;11.680;2023-04-25T04:25:01;8.30;99.90
8539;DHT22;4307;53.868;11.680;2023-04-25T04:27:30;8.20;99.90
8539;DHT22;4307;53.868;11.680;2023-04-25T04:29:58;8.20;99.90
8539;DHT22;4307;53.868;11.680;2023-04-25T04:32:24;8.20;99.90
8539;DHT22;4307;53.868;11.680;2023-04-25T04:34:53;8.20;99.90
8539;DHT22;4307;53.868;11.680;2023-04-25T04:37:21;8.10;99.90
8539;DHT22;4307;53.868;11.680;2023-04-25T04:39:48;8.10;99.90
8539;DHT22;4307;53.868;11.680;2023-04-25T04:42:15;8.10;99.90
8539;DHT22;4307;53.868;11.680;2023-04-25T04:44:42;8.00;99.90
8539;DHT22;4307;53.868;11.680;2023-04-25T04:47:11;8.00;99.90
8539;DHT22;4307;53.868;11.680;2023-04-25T04:49:39;8.10;99.90
8539;DHT22;4307;53.868;11.680;2023-04-25T04:52:06;8.30;99.90
8539;DHT22;4307;53.868;11.680;2023-04-25T04:54:32;8.40;99.90
8539;DHT22;4307;53.868;11.680;2023-04-25T04:57:00;8.50;99.90
8539;DHT22;4307;53.868;11.680;2023-04-25T04:59:27;8.50;99.90
8539;DHT22;4307;53.868;11.680;2023-04-25T05:01:54;8.60;99.90
8539;DHT22;4307;53.868;11.680;2023-04-25T05:04:21;8.80;99.90
8539;DHT22;4307;53.868;11.680;2023-04-25T05:06:48;9.10;99.90
8539;DHT22;4307;53.868;11.680;2023-04-25T05:09:15;9.40;99.90
8539;DHT22;4307;53.868;11.680;2023-04-25T05:11:42;9.70;99.90
8539;DHT22;4307;53.868;11.680;2023-04-25T05:14:08;9.90;99.90
8539;DHT22;4307;53.868;11.680;2023-04-25T05:16:35;10.10;99.90
8539;DHT22;4307;53.868;11.680;2023-04-25T05:19:02;10.40;99.90
8539;DHT22;4307;53.868;11.680;2023-04-25T05:21:30;10.60;99.90
8539;DHT22;4307;53.868;11.680;2023-04-25T05:23:57;10.80;99.90
8539;DHT22;4307;53.868;11.680;2023-04-25T05:26:23;11.00;99.90
8539;DHT22;4307;53.868;11.680;2023-04-25T05:28:50;11.20;99.90
8539;DHT22;4307;53.868;11.680;2023-04-25T05:31:17;11.30;99.90
8539;DHT22;4307;53.868;11.680;2023-04-25T05:33:44;11.30;99.90
8539;DHT22;4307;53.868;11.680;2023-04-25T05:36:10;11.40;99.90
8539;DHT22;4307;53.868;11.680;2023-04-25T05:38:38;11.50;99.90
8539;DHT22;4307;53.868;11.680;2023-04-25T05:41:05;11.70;99.90
8539;DHT22;4307;53.868;11.680;2023-04-25T05:43:32;11.90;99.90
8539;DHT22;4307;53.868;11.680;2023-04-25T05:45:59;12.10;99.90
8539;DHT22;4307;53.868;11.680;2023-04-25T05:48:26;12.30;99.90
8539;DHT22;4307;53.868;11.680;2023-04-25T05:50:52;12.30;99.80
8539;DHT22;4307;53.868;11.680;2023-04-25T05:53:19;12.30;99.50
8539;DHT22;4307;53.868;11.680;2023-04-25T05:55:48;12.40;99.40
8539;DHT22;4307;53.868;11.680;2023-04-25T05:58:15;12.60;99.40
8539;DHT22;4307;53.868;11.680;2023-04-25T06:00:41;12.80;99.00
8539;DHT22;4307;53.868;11.680;2023-04-25T06:03:08;13.00;98.90
8539;DHT22;4307;53.868;11.680;2023-04-25T06:05:36;13.40;98.60
8539;DHT22;4307;53.868;11.680;2023-04-25T06:08:03;13.40;97.40
8539;DHT22;4307;53.868;11.680;2023-04-25T06:10:29;13.30;97.00
8539;DHT22;4307;53.868;11.680;2023-04-25T06:12:57;13.30;97.30
8539;DHT22;4307;53.868;11.680;2023-04-25T06:15:24;13.50;96.50
8539;DHT22;4307;53.868;11.680;2023-04-25T06:17:51;13.70;95.80
8539;DHT22;4307;53.868;11.680;2023-04-25T06:20:18;13.80;95.70
8539;DHT22;4307;53.868;11.680;2023-04-25T06:22:48;13.90;95.10
8539;DHT22;4307;53.868;11.680;2023-04-25T06:25:15;14.10;94.80
8539;DHT22;4307;53.868;11.680;2023-04-25T06:27:42;14.30;94.10
8539;DHT22;4307;53.868;11.680;2023-04-25T06:30:10;14.00;93.50
8539;DHT22;4307;53.868;11.680;2023-04-25T06:32:37;13.60;93.20
8539;DHT22;4307;53.868;11.680;2023-04-25T06:35:05;13.10;93.20
8539;DHT22;4307;53.868;11.680;2023-04-25T06:37:32;12.70;93.00
8539;DHT22;4307;53.868;11.680;2023-04-25T06:39:58;12.30;92.90
8539;DHT22;4307;53.868;11.680;2023-04-25T06:42:25;11.80;92.90
8539;DHT22;4307;53.868;11.680;2023-04-25T06:44:52;11.40;93.00
8539;DHT22;4307;53.868;11.680;2023-04-25T06:47:20;11.20;93.20
8539;DHT22;4307;53.868;11.680;2023-04-25T06:49:46;11.00;93.40
8539;DHT22;4307;53.868;11.680;2023-04-25T06:52:13;11.00;93.50
8539;DHT22;4307;53.868;11.680;2023-04-25T06:54:40;11.00;93.50
8539;DHT22;4307;53.868;11.680;2023-04-25T06:57:06;11.30;93.60
8539;DHT22;4307;53.868;11.680;2023-04-25T06:59:33;11.40;93.20
8539;DHT22;4307;53.868;11.680;2023-04-25T07:02:00;11.50;93.20
8539;DHT22;4307;53.868;11.680;2023-04-25T07:04:28;11.80;93.30
8539;DHT22;4307;53.868;11.680;2023-04-25T07:06:54;12.30;93.10
8539;DHT22;4307;53.868;11.680;2023-04-25T07:09:21;12.70;92.80
8539;DHT22;4307;53.868;11.680;2023-04-25T07:11:48;13.20;92.70
8539;DHT22;4307;53.868;11.680;2023-04-25T07:14:15;13.50;92.00
8539;DHT22;4307;53.868;11.680;2023-04-25T07:16:41;13.60;91.60
8539;DHT22;4307;53.868;11.680;2023-04-25T07:19:08;13.50;91.30
8539;DHT22;4307;53.868;11.680;2023-04-25T07:21:36;13.30;90.90
8539;DHT22;4307;53.868;11.680;2023-04-25T07:24:03;13.00;90.90
8539;DHT22;4307;53.868;11.680;2023-04-25T07:26:30;12.70;91.10
8539;DHT22;4307;53.868;11.680;2023-04-25T07:28:56;12.50;91.30
8539;DHT22;4307;53.868;11.680;2023-04-25T07:31:23;12.30;91.10
8539;DHT22;4307;53.868;11.680;2023-04-25T07:33:50;12.10;91.10
8539;DHT22;4307;53.868;11.680;2023-04-25T07:36:17;12.00;91.30
8539;DHT22;4307;53.868;11.680;2023-04-25T07:38:45;12.00;91.20
8539;DHT22;4307;53.868;11.680;2023-04-25T07:41:11;12.00;91.10
8539;DHT22;4307;53.868;11.680;2023-04-25T07:43:38;11.90;91.00
8539;DHT22;4307;53.868;11.680;2023-04-25T07:46:04;11.70;91.00
8539;DHT22;4307;53.868;11.680;2023-04-25T07:48:31;11.50;91.00
8539;DHT22;4307;53.868;11.680;2023-04-25T07:50:58;11.40;90.80
8539;DHT22;4307;53.868;11.680;2023-04-25T07:53:25;11.30;90.90
8539;DHT22;4307;53.868;11.680;2023-04-25T07:55:53;11.20;90.90
8539;DHT22;4307;53.868;11.680;2023-04-25T07:58:19;11.10;91.00
8539;DHT22;4307;53.868;11.680;2023-04-25T08:00:47;11.10;91.00
8539;DHT22;4307;53.868;11.680;2023-04-25T08:03:14;10.90;91.10
8539;DHT22;4307;53.868;11.680;2023-04-25T08:05:40;10.80;91.10
8539;DHT22;4307;53.868;11.680;2023-04-25T08:08:07;10.70;91.10
8539;DHT22;4307;53.868;11.680;2023-04-25T08:10:34;10.50;91.00
8539;DHT22;4307;53.868;11.680;2023-04-25T08:13:02;10.40;91.10
8539;DHT22;4307;53.868;11.680;2023-04-25T08:15:28;10.40;91.20
8539;DHT22;4307;53.868;11.680;2023-04-25T08:17:55;10.30;91.20
8539;DHT22;4307;53.868;11.680;2023-04-25T08:20:22;10.30;91.20
8539;DHT22;4307;53.868;11.680;2023-04-25T08:22:48;10.30;91.20
8539;DHT22;4307;53.868;11.680;2023-04-25T08:25:15;10.30;91.20
8539;DHT22;4307;53.868;11.680;2023-04-25T08:27:42;10.30;91.30
8539;DHT22;4307;53.868;11.680;2023-04-25T08:30:11;10.40;91.70
8539;DHT22;4307;53.868;11.680;2023-04-25T08:32:38;10.50;91.30
8539;DHT22;4307;53.868;11.680;2023-04-25T08:35:05;10.60;91.30
8539;DHT22;4307;53.868;11.680;2023-04-25T08:37:32;10.70;91.00
8539;DHT22;4307;53.868;11.680;2023-04-25T08:39:58;10.70;90.90
8539;DHT22;4307;53.868;11.680;2023-04-25T08:42:27;10.80;90.80
8539;DHT22;4307;53.868;11.680;2023-04-25T08:44:54;10.80;90.90
8539;DHT22;4307;53.868;11.680;2023-04-25T08:47:23;10.90;91.10
8539;DHT22;4307;53.868;11.680;2023-04-25T08:49:53;11.10;90.90
8539;DHT22;4307;53.868;11.680;2023-04-25T08:52:22;11.20;90.70
8539;DHT22;4307;53.868;11.680;2023-04-25T08:54:49;11.20;90.70
8539;DHT22;4307;53.868;11.680;2023-04-25T08:57:18;11.20;90.60
8539;DHT22;4307;53.868;11.680;2023-04-25T08:59:45;11.10;90.40
8539;DHT22;4307;53.868;11.680;2023-04-25T09:02:13;11.00;90.30
8539;DHT22;4307;53.868;11.680;2023-04-25T09:04:44;10.80;90.40
8539;DHT22;4307;53.868;11.680;2023-04-25T09:07:10;10.70;90.40
8539;DHT22;4307;53.868;11.680;2023-04-25T09:09:37;10.60;90.50
8539;DHT22;4307;53.868;11.680;2023-04-25T09:12:05;10.50;90.70
8539;DHT22;4307;53.868;11.680;2023-04-25T09:14:32;10.40;90.90
8539;DHT22;4307;53.868;11.680;2023-04-25T09:17:03;10.30;91.00
8539;DHT22;4307;53.868;11.680;2023-04-25T09:19:31;10.20;91.10
8539;DHT22;4307;53.868;11.680;2023-04-25T09:22:01;10.20;91.20
8539;DHT22;4307;53.868;11.680;2023-04-25T09:24:36;10.10;91.30
8539;DHT22;4307;53.868;11.680;2023-04-25T09:27:06;10.10;91.40
8539;DHT22;4307;53.868;11.680;2023-04-25T09:29:34;10.20;91.60
8539;DHT22;4307;53.868;11.680;2023-04-25T09:32:12;10.20;91.60
8539;DHT22;4307;53.868;11.680;2023-04-25T09:34:40;10.30;91.40
8539;DHT22;4307;53.868;11.680;2023-04-25T09:37:10;10.30;91.40
8539;DHT22;4307;53.868;11.680;2023-04-25T09:39:37;10.30;91.40
8539;DHT22;4307;53.868;11.680;2023-04-25T09:42:04;10.20;91.40
8539;DHT22;4307;53.868;11.680;2023-04-25T09:44:31;10.30;91.40
8539;DHT22;4307;53.868;11.680;2023-04-25T09:46:58;10.30;91.30
8539;DHT22;4307;53.868;11.680;2023-04-25T09:49:25;10.30;91.30
8539;DHT22;4307;53.868;11.680;2023-04-25T09:51:55;10.30;91.20
8539;DHT22;4307;53.868;11.680;2023-04-25T09:54:25;10.30;91.20
8539;DHT22;4307;53.868;11.680;2023-04-25T09:56:52;10.40;91.20
8539;DHT22;4307;53.868;11.680;2023-04-25T09:59:20;10.50;91.30
8539;DHT22;4307;53.868;11.680;2023-04-25T10:01:48;10.80;91.40
8539;DHT22;4307;53.868;11.680;2023-04-25T10:04:19;11.10;91.30
8539;DHT22;4307;53.868;11.680;2023-04-25T10:06:48;11.30;90.70
8539;DHT22;4307;53.868;11.680;2023-04-25T10:09:16;11.30;90.30
8539;DHT22;4307;53.868;11.680;2023-04-25T10:11:44;11.30;90.10
8539;DHT22;4307;53.868;11.680;2023-04-25T10:14:13;11.10;89.90
8539;DHT22;4307;53.868;11.680;2023-04-25T10:16:40;11.00;89.60
8539;DHT22;4307;53.868;11.680;2023-04-25T10:19:08;10.90;89.40
8539;DHT22;4307;53.868;11.680;2023-04-25T10:21:35;10.80;89.30
8539;DHT22;4307;53.868;11.680;2023-04-25T10:24:06;10.70;89.40
8539;DHT22;4307;53.868;11.680;2023-04-25T10:26:33;10.70;89.50
8539;DHT22;4307;53.868;11.680;2023-04-25T10:29:04;10.70;89.30
8539;DHT22;4307;53.868;11.680;2023-04-25T10:31:31;10.70;89.20
8539;DHT22;4307;53.868;11.680;2023-04-25T10:33:59;10.60;89.00
8539;DHT22;4307;53.868;11.680;2023-04-25T10:36:26;10.60;88.80
8539;DHT22;4307;53.868;11.680;2023-04-25T10:39:03;10.60;88.90
8539;DHT22;4307;53.868;11.680;2023-04-25T10:41:32;10.60;88.80
8539;DHT22;4307;53.868;11.680;2023-04-25T10:44:15;10.50;88.50
8539;DHT22;4307;53.868;11.680;2023-04-25T10:46:44;10.50;88.40
8539;DHT22;4307;53.868;11.680;2023-04-25T10:49:28;10.40;88.50
8539;DHT22;4307;53.868;11.680;2023-04-25T10:52:11;10.30;88.60
8539;DHT22;4307;53.868;11.680;2023-04-25T10:54:40;10.20;88.80
8539;DHT22;4307;53.868;11.680;2023-04-25T10:57:07;10.10;89.00
8539;DHT22;4307;53.868;11.680;2023-04-25T10:59:35;10.10;89.30
8539;DHT22;4307;53.868;11.680;2023-04-25T11:02:11;10.20;89.80
8539;DHT22;4307;53.868;11.680;2023-04-25T11:04:40;10.20;90.00
8539;DHT22;4307;53.868;11.680;2023-04-25T11:07:13;10.40;90.00
8539;DHT22;4307;53.868;11.680;2023-04-25T11:09:42;10.60;89.60
8539;DHT22;4307;53.868;11.680;2023-04-25T11:12:11;10.80;89.40
8539;DHT22;4307;53.868;11.680;2023-04-25T11:14:39;11.00;89.20
8539;DHT22;4307;53.868;11.680;2023-04-25T11:17:06;11.20;88.60
8539;DHT22;4307;53.868;11.680;2023-04-25T11:19:33;11.40;88.50
8539;DHT22;4307;53.868;11.680;2023-04-25T11:22:01;11.40;88.20
8539;DHT22;4307;53.868;11.680;2023-04-25T11:24:28;11.40;88.30
8539;DHT22;4307;53.868;11.680;2023-04-25T11:26:56;11.30;88.30
8539;DHT22;4307;53.868;11.680;2023-04-25T11:29:24;11.30;88.40
8539;DHT22;4307;53.868;11.680;2023-04-25T11:31:54;11.10;88.40
8539;DHT22;4307;53.868;11.680;2023-04-25T11:34:23;11.10;88.60
8539;DHT22;4307;53.868;11.680;2023-04-25T11:36:50;11.00;88.70
8539;DHT22;4307;53.868;11.680;2023-04-25T11:39:18;10.90;88.80
8539;DHT22;4307;53.868;11.680;2023-04-25T11:41:44;10.80;89.00
8539;DHT22;4307;53.868;11.680;2023-04-25T11:44:12;10.70;89.10
8539;DHT22;4307;53.868;11.680;2023-04-25T11:46:42;10.70;89.50
8539;DHT22;4307;53.868;11.680;2023-04-25T11:49:10;10.60;89.80
8539;DHT22;4307;53.868;11.680;2023-04-25T11:51:39;10.60;90.10
8539;DHT22;4307;53.868;11.680;2023-04-25T11:54:06;10.80;90.40
8539;DHT22;4307;53.868;11.680;2023-04-25T11:56:33;11.00;90.60
8539;DHT22;4307;53.868;11.680;2023-04-25T11:59:01;11.30;90.60
8539;DHT22;4307;53.868;11.680;2023-04-25T12:01:29;11.60;90.50
8539;DHT22;4307;53.868;11.680;2023-04-25T12:03:56;11.80;90.30
8539;DHT22;4307;53.868;11.680;2023-04-25T12:06:27;12.00;89.70
8539;DHT22;4307;53.868;11.680;2023-04-25T12:09:02;12.10;88.60
8539;DHT22;4307;53.868;11.680;2023-04-25T12:11:30;12.20;88.70
8539;DHT22;4307;53.868;11.680;2023-04-25T12:14:02;12.40;89.10
8539;DHT22;4307;53.868;11.680;2023-04-25T12:16:29;12.60;88.60
8539;DHT22;4307;53.868;11.680;2023-04-25T12:18:56;12.70;88.00
8539;DHT22;4307;53.868;11.680;2023-04-25T12:21:29;12.80;87.80
8539;DHT22;4307;53.868;11.680;2023-04-25T12:24:11;12.90;87.70
8539;DHT22;4307;53.868;11.680;2023-04-25T12:26:49;13.20;87.70
8539;DHT22;4307;53.868;11.680;2023-04-25T12:29:17;13.30;86.90
8539;DHT22;4307;53.868;11.680;2023-04-25T12:31:43;13.30;86.40
8539;DHT22;4307;53.868;11.680;2023-04-25T12:34:10;13.10;86.20
8539;DHT22;4307;53.868;11.680;2023-04-25T12:36:38;12.90;86.20
8539;DHT22;4307;53.868;11.680;2023-04-25T12:39:05;12.70;86.40
8539;DHT22;4307;53.868;11.680;2023-04-25T12:41:33;12.60;86.70
8539;DHT22;4307;53.868;11.680;2023-04-25T12:44:00;12.30;86.60
8539;DHT22;4307;53.868;11.680;2023-04-25T12:46:27;12.00;86.90
8539;DHT22;4307;53.868;11.680;2023-04-25T12:48:53;11.70;87.80
8539;DHT22;4307;53.868;11.680;2023-04-25T12:51:20;11.50;89.00
8539;DHT22;4307;53.868;11.680;2023-04-25T12:53:51;11.20;89.60
8539;DHT22;4307;53.868;11.680;2023-04-25T12:56:18;11.00;89.80
8539;DHT22;4307;53.868;11.680;2023-04-25T12:58:45;11.00;90.00
8539;DHT22;4307;53.868;11.680;2023-04-25T13:01:13;11.00;90.10
8539;DHT22;4307;53.868;11.680;2023-04-25T13:03:40;11.10;90.20
8539;DHT22;4307;53.868;11.680;2023-04-25T13:06:07;11.20;90.00
8539;DHT22;4307;53.868;11.680;2023-04-25T13:08:34;11.30;90.00
8539;DHT22;4307;53.868;11.680;2023-04-25T13:11:03;11.40;90.00
8539;DHT22;4307;53.868;11.680;2023-04-25T13:13:30;11.50;89.70
8539;DHT22;4307;53.868;11.680;2023-04-25T13:15:59;11.50;89.40
8539;DHT22;4307;53.868;11.680;2023-04-25T13:18:27;11.50;88.80
8539;DHT22;4307;53.868;11.680;2023-04-25T13:20:54;11.50;88.30
8539;DHT22;4307;53.868;11.680;2023-04-25T13:23:21;11.50;88.20
8539;DHT22;4307;53.868;11.680;2023-04-25T13:25:47;11.50;88.20
8539;DHT22;4307;53.868;11.680;2023-04-25T13:28:15;11.50;88.40
8539;DHT22;4307;53.868;11.680;2023-04-25T13:30:42;11.70;88.50
8539;DHT22;4307;53.868;11.680;2023-04-25T13:33:09;11.80;88.60
8539;DHT22;4307;53.868;11.680;2023-04-25T13:35:37;12.00;88.40
8539;DHT22;4307;53.868;11.680;2023-04-25T13:38:04;12.30;88.20
8539;DHT22;4307;53.868;11.680;2023-04-25T13:40:30;12.40;88.00
8539;DHT22;4307;53.868;11.680;2023-04-25T13:42:58;12.60;88.00
8539;DHT22;4307;53.868;11.680;2023-04-25T13:45:26;12.80;88.00
8539;DHT22;4307;53.868;11.680;2023-04-25T13:47:53;12.90;87.90
8539;DHT22;4307;53.868;11.680;2023-04-25T13:50:20;12.90;87.80
8539;DHT22;4307;53.868;11.680;2023-04-25T13:52:47;12.90;87.60
8539;DHT22;4307;53.868;11.680;2023-04-25T13:55:14;12.70;87.50
8539;DHT22;4307;53.868;11.680;2023-04-25T13:57:40;12.40;88.10
8539;DHT22;4307;53.868;11.680;2023-04-25T14:00:08;12.00;89.20
8539;DHT22;4307;53.868;11.680;2023-04-25T14:02:37;11.50;90.10
8539;DHT22;4307;53.868;11.680;2023-04-25T14:05:05;11.20;90.60
8539;DHT22;4307;53.868;11.680;2023-04-25T14:07:34;11.00;90.90
8539;DHT22;4307;53.868;11.680;2023-04-25T14:10:01;10.80;91.00
8539;DHT22;4307;53.868;11.680;2023-04-25T14:12:29;10.70;91.00
8539;DHT22;4307;53.868;11.680;2023-04-25T14:14:56;10.70;91.00
8539;DHT22;4307;53.868;11.680;2023-04-25T14:17:22;10.70;90.90
8539;DHT22;4307;53.868;11.680;2023-04-25T14:19:50;10.70;90.80
8539;DHT22;4307;53.868;11.680;2023-04-25T14:22:17;10.80;90.90
8539;DHT22;4307;53.868;11.680;2023-04-25T14:24:44;10.80;91.10
8539;DHT22;4307;53.868;11.680;2023-04-25T14:27:11;10.90;90.90
8539;DHT22;4307;53.868;11.680;2023-04-25T14:29:38;11.10;91.10
8539;DHT22;4307;53.868;11.680;2023-04-25T14:32:04;11.20;91.10
8539;DHT22;4307;53.868;11.680;2023-04-25T14:34:31;11.30;91.30
8539;DHT22;4307;53.868;11.680;2023-04-25T14:36:59;11.30;91.30
8539;DHT22;4307;53.868;11.680;2023-04-25T14:39:26;11.40;91.40
8539;DHT22;4307;53.868;11.680;2023-04-25T14:41:53;11.40;91.50
8539;DHT22;4307;53.868;11.680;2023-04-25T14:44:19;11.40;91.70
8539;DHT22;4307;53.868;11.680;2023-04-25T14:46:46;11.40;91.60
8539;DHT22;4307;53.868;11.680;2023-04-25T14:49:13;11.40;91.50
8539;DHT22;4307;53.868;11.680;2023-04-25T14:51:39;11.40;91.40
8539;DHT22;4307;53.868;11.680;2023-04-25T14:54:07;11.30;91.30
8539;DHT22;4307;53.868;11.680;2023-04-25T14:56:34;11.30;91.30
8539;DHT22;4307;53.868;11.680;2023-04-25T14:59:01;11.30;91.30
8539;DHT22;4307;53.868;11.680;2023-04-25T15:01:28;11.30;91.40
8539;DHT22;4307;53.868;11.680;2023-04-25T15:03:54;11.30;91.50
8539;DHT22;4307;53.868;11.680;2023-04-25T15:06:22;11.20;91.50
8539;DHT22;4307;53.868;11.680;2023-04-25T15:08:51;11.20;91.70
8539;DHT22;4307;53.868;11.680;2023-04-25T15:11:19;11.10;91.70
8539;DHT22;4307;53.868;11.680;2023-04-25T15:13:47;11.10;91.80
8539;DHT22;4307;53.868;11.680;2023-04-25T15:16:14;10.90;91.90
8539;DHT22;4307;53.868;11.680;2023-04-25T15:18:40;10.80;92.00
8539;DHT22;4307;53.868;11.680;2023-04-25T15:21:07;10.80;92.10
8539;DHT22;4307;53.868;11.680;2023-04-25T15:23:34;10.80;92.20
8539;DHT22;4307;53.868;11.680;2023-04-25T15:26:00;10.80;92.30
8539;DHT22;4307;53.868;11.680;2023-04-25T15:28:28;11.00;92.30
8539;DHT22;4307;53.868;11.680;2023-04-25T15:30:56;11.00;92.10
8539;DHT22;4307;53.868;11.680;2023-04-25T15:33:23;11.10;92.00
8539;DHT22;4307;53.868;11.680;2023-04-25T15:35:50;11.10;91.90
8539;DHT22;4307;53.868;11.680;2023-04-25T15:38:17;11.10;91.80
8539;DHT22;4307;53.868;11.680;2023-04-25T15:40:44;11.10;91.70
8539;DHT22;4307;53.868;11.680;2023-04-25T15:43:10;11.10;91.60
8539;DHT22;4307;53.868;11.680;2023-04-25T15:45:41;11.00;91.40
8539;DHT22;4307;53.868;11.680;2023-04-25T15:48:08;11.00;91.40
8539;DHT22;4307;53.868;11.680;2023-04-25T15:50:35;11.00;91.30
8539;DHT22;4307;53.868;11.680;2023-04-25T15:53:02;11.00;91.10
8539;DHT22;4307;53.868;11.680;2023-04-25T15:55:28;11.00;90.90